createdAt,value
2023-02-25T00:08:23.477Z,3.4
2023-02-25T00:18:24.068Z,-2.5
2023-02-25T00:28:24.380Z,-2.4
2023-02-25T00:38:24.934Z,3.3
2023-02-25T00:48:24.961Z,2.8
2023-02-25T00:58:25.912Z,3.1
2023-02-25T01:08:26.270Z,3.1
2023-02-25T01:18:26.887Z,3.2
2023-02-25T01:28:26.893Z,3.1
2023-02-25T01:38:26.983Z,3.2
2023-02-25T01:48:28.754Z,-2.4
2023-02-25T01:58:29.309Z,-1.7
2023-02-25T02:08:29.668Z,3.5
2023-02-25T02:18:30.400Z,2.4
2023-02-25T02:28:31.545Z,-3.2
2023-02-25T02:38:32.340Z,-1.5
2023-02-25T02:48:33.458Z,3.3
2023-02-25T02:58:34.051Z,-1.8
2023-02-25T03:08:07.996Z,3
2023-02-25T03:18:08.151Z,2.8
2023-02-25T03:28:08.619Z,2.7
2023-02-25T03:38:09.641Z,2.8
2023-02-25T03:48:09.867Z,3
2023-02-25T03:58:10.594Z,2.9
2023-02-25T04:08:12.771Z,2.8
2023-02-25T04:18:14.823Z,-4.3
2023-02-25T04:28:15.782Z,2.8
2023-02-25T04:38:18.055Z,-3.9
2023-02-25T04:48:20.004Z,2.6
2023-02-25T04:58:21.560Z,2.2
2023-02-25T05:08:21.828Z,-3.7
2023-02-25T05:18:21.737Z,2.6
2023-02-25T05:28:22.884Z,3.2
2023-02-25T05:38:23.176Z,3.6
2023-02-25T05:48:23.698Z,3
2023-02-25T05:58:25.219Z,4.1
2023-02-25T06:08:26.460Z,3.9
2023-02-25T06:18:27.522Z,4.1
2023-02-25T06:28:27.703Z,3.9
2023-02-25T06:38:29.693Z,4.3
2023-02-25T06:48:30.895Z,3.1
2023-02-25T06:58:37.046Z,5.5
2023-02-25T07:08:46.621Z,1.2
2023-02-25T07:18:51.981Z,1.4
2023-02-25T07:28:56.731Z,2.1
2023-02-25T07:39:02.924Z,1.9
2023-02-25T07:49:09.279Z,6.1
2023-02-25T07:59:21.730Z,0.1
2023-02-25T08:09:36.046Z,2.8
2023-02-25T08:19:50.736Z,1.8
2023-02-25T08:30:04.858Z,3.6
2023-02-25T08:40:19.008Z,2.1
2023-02-25T08:50:30.112Z,3.1
2023-02-25T09:08:13.742Z,4.6
2023-02-25T09:18:16.982Z,7.6
2023-02-25T09:28:18.386Z,8.2
2023-02-25T09:38:19.886Z,1
2023-02-25T09:48:19.699Z,0.6
2023-02-25T09:58:22.302Z,0.7
2023-02-25T10:08:25.746Z,0.3
2023-02-25T10:18:27.737Z,10.1
2023-02-25T10:28:30.293Z,11.2
2023-02-25T10:38:31.586Z,10.6
2023-02-25T10:48:32.318Z,11.5
2023-02-25T10:58:34.183Z,12.3
2023-02-25T11:08:34.394Z,11.8
2023-02-25T11:18:34.982Z,12.2
2023-02-25T11:28:35.822Z,12.3
2023-02-25T11:38:36.108Z,11.9
2023-02-25T11:48:36.425Z,12
2023-02-25T11:58:37.149Z,12
2023-02-25T12:08:37.684Z,11.8
2023-02-25T12:18:38.461Z,11.3
2023-02-25T12:28:39.129Z,12.2
2023-02-25T12:38:39.205Z,12.9
2023-02-25T12:48:40.106Z,6.1
2023-02-25T12:58:42.386Z,11.1
2023-02-25T13:08:46.881Z,7.1
2023-02-25T13:18:53.227Z,7.7
2023-02-25T13:28:57.296Z,10.1
2023-02-25T13:38:58.572Z,5.9
2023-02-25T13:49:00.000Z,13.1
2023-02-25T13:59:02.109Z,4.5
2023-02-25T14:09:02.383Z,12.5
2023-02-25T14:19:02.671Z,12.8
2023-02-25T14:29:02.811Z,4.9
2023-02-25T14:39:04.202Z,13.5
2023-02-25T14:49:04.460Z,13.4
2023-02-25T14:59:04.958Z,13.1
2023-02-25T15:08:07.129Z,12.4
2023-02-25T15:18:07.042Z,12.4
2023-02-25T15:28:06.950Z,12.4
2023-02-25T15:38:07.279Z,12.4
2023-02-25T15:48:07.767Z,12.6
2023-02-25T15:58:07.841Z,12.3
2023-02-25T16:08:10.346Z,12.1
2023-02-25T16:18:12.502Z,12
2023-02-25T16:28:12.440Z,12.1
2023-02-25T16:38:16.391Z,12.4
2023-02-25T16:48:18.954Z,12.1
2023-02-25T16:58:20.093Z,11.9
2023-02-25T17:08:20.315Z,12.4
2023-02-25T17:18:21.236Z,4.4
2023-02-25T17:28:21.619Z,4.7
2023-02-25T17:38:21.336Z,11.9
2023-02-25T17:48:21.032Z,12.2
2023-02-25T17:58:21.215Z,11.7
2023-02-25T18:08:21.293Z,11.9
2023-02-25T18:18:21.375Z,12.6
2023-02-25T18:28:21.446Z,12.4
2023-02-25T18:38:21.980Z,4.5
2023-02-25T18:48:22.043Z,11.8
2023-02-25T18:58:22.910Z,4.1
2023-02-25T19:08:23.808Z,11.4
2023-02-25T19:18:24.176Z,11.6
2023-02-25T19:28:24.163Z,11.7
2023-02-25T19:38:24.419Z,12.4
2023-02-25T19:48:25.158Z,11.4
2023-02-25T19:58:25.432Z,4.8
2023-02-25T20:08:25.500Z,11.9
2023-02-25T20:18:25.448Z,12.1
2023-02-25T20:28:25.951Z,11.9
2023-02-25T20:38:26.151Z,12.3
2023-02-25T20:48:27.706Z,12.3
2023-02-25T20:58:28.428Z,12.5
2023-02-25T21:08:08.501Z,11.8
2023-02-25T21:18:08.114Z,12.3
2023-02-25T21:28:08.459Z,12
2023-02-25T21:38:07.873Z,12.4
2023-02-25T21:48:07.981Z,12.1
2023-02-25T21:58:08.874Z,12.1
2023-02-25T22:08:09.850Z,12.2
2023-02-25T22:18:11.044Z,12.6
2023-02-25T22:28:12.262Z,12.1
2023-02-25T22:38:13.052Z,11.9
2023-02-25T22:48:15.242Z,11.8
2023-02-25T22:58:16.590Z,3.8
2023-02-25T23:08:17.922Z,3.1
2023-02-25T23:18:18.017Z,11.9
2023-02-25T23:28:18.259Z,11.6
2023-02-25T23:38:18.997Z,11.9
2023-02-25T23:48:19.270Z,11.8
2023-02-25T23:58:19.518Z,11.9
